Mackey Bar, Idaho
Current Conditions -  °F | °C
As of 3:51 PM on Friday 31 Oct 2014 (Local Time) from KMYL Reporting Station
Light Rain Light Rain  
Wind Chill: 59°   Ceiling: 11000
Heat Index: 59°   Visibility: 10mi
Dew Point: 31°   Wind: 10mph
Humidity: 35%   Direction: 180°S
Pressure: 29.81"   Gusts: NA
Location:  44.4236°N, 115.8°W
Report Text: KMYL 312151Z AUTO 18009KT 10SM -RA BKN110 15/M01 A2981 RMK AO2 SLP079 P0000 T01501006
Loading
Personal Weather Stations






























Interactive Weather Map
Tropical Storm Tracking
New forecast layout! Learn more

10-Day Weather Forecast

Advertisements
Track Severe Weather on mobile